createdAt,value
2018-02-05T00:00:39.919Z,66.7
2018-02-05T00:01:40.684Z,60.1
2018-02-05T00:02:41.474Z,60.9
2018-02-05T00:03:42.228Z,62.7
2018-02-05T00:04:42.935Z,62.7
2018-02-05T00:05:43.645Z,57.3
2018-02-05T00:06:44.436Z,60.7
2018-02-05T00:07:45.148Z,58.2
2018-02-05T00:08:45.881Z,64.0
2018-02-05T00:09:46.606Z,60.8
2018-02-05T00:10:47.369Z,106.5
2018-02-05T00:11:48.197Z,62.8
2018-02-05T00:12:48.937Z,64.3
2018-02-05T00:13:49.711Z,62.0
2018-02-05T00:14:50.495Z,60.8
2018-02-05T00:15:51.258Z,58.8
2018-02-05T00:16:51.975Z,61.5
2018-02-05T00:17:52.708Z,57.5
2018-02-05T00:18:53.437Z,59.2
2018-02-05T00:19:54.237Z,57.1
2018-02-05T00:20:55.257Z,62.4
2018-02-05T00:21:55.989Z,63.5
2018-02-05T00:22:56.694Z,60.9
2018-02-05T00:23:57.426Z,57.2
2018-02-05T00:24:58.178Z,60.1
2018-02-05T00:25:59.188Z,59.6
2018-02-05T00:26:59.935Z,58.4
2018-02-05T00:28:00.707Z,57.2
2018-02-05T00:29:01.499Z,62.0
2018-02-05T00:30:02.314Z,67.2
2018-02-05T00:31:03.045Z,60.3
2018-02-05T00:32:03.773Z,61.7
2018-02-05T00:33:04.486Z,56.0
2018-02-05T00:34:05.230Z,57.2
2018-02-05T00:35:05.987Z,56.5
2018-02-05T00:36:06.722Z,59.3
2018-02-05T00:37:07.453Z,58.3
2018-02-05T00:38:08.531Z,57.5
2018-02-05T00:39:09.248Z,54.2
2018-02-05T00:40:10.039Z,56.1
2018-02-05T00:41:10.806Z,60.6
2018-02-05T00:42:11.569Z,60.0
2018-02-05T00:43:12.285Z,58.9
2018-02-05T00:44:13.016Z,55.2
2018-02-05T00:45:13.737Z,57.4
2018-02-05T00:46:14.455Z,58.2
2018-02-05T00:47:15.178Z,73.4
2018-02-05T00:48:15.894Z,63.2
2018-02-05T00:49:16.622Z,61.7
2018-02-05T00:50:17.391Z,53.0
2018-02-05T00:51:18.119Z,59.7
2018-02-05T00:52:18.845Z,58.9
2018-02-05T00:53:19.585Z,55.1
2018-02-05T00:54:20.374Z,61.3
2018-02-05T00:55:21.109Z,62.7
2018-02-05T00:56:21.905Z,59.3
2018-02-05T00:57:22.625Z,57.8
2018-02-05T00:58:23.423Z,69.1
2018-02-05T00:59:24.155Z,63.6
2018-02-05T01:00:24.876Z,64.6
2018-02-05T01:01:25.671Z,63.2
2018-02-05T01:02:26.752Z,59.4
2018-02-05T01:03:27.459Z,58.4
2018-02-05T01:04:28.205Z,57.1
2018-02-05T01:05:29.003Z,59.5
2018-02-05T01:06:29.768Z,63.5
2018-02-05T01:07:30.579Z,55.6
2018-02-05T01:08:31.327Z,54.5
2018-02-05T01:09:32.104Z,56.9
2018-02-05T01:10:32.855Z,57.2
2018-02-05T01:11:33.598Z,63.3
2018-02-05T01:12:34.670Z,58.0
2018-02-05T01:13:35.460Z,58.2
2018-02-05T01:14:36.187Z,56.9
2018-02-05T01:15:36.909Z,59.8
2018-02-05T01:16:37.637Z,57.8
2018-02-05T01:17:38.352Z,53.5
2018-02-05T01:18:39.072Z,59.3
2018-02-05T01:19:39.741Z,58.5
2018-02-05T01:20:40.526Z,50.6
2018-02-05T01:21:41.267Z,57.6
2018-02-05T01:22:41.990Z,57.1
2018-02-05T01:23:42.719Z,58.9
2018-02-05T01:24:43.804Z,55.1
2018-02-05T01:25:44.537Z,58.0
2018-02-05T01:26:45.246Z,50.5
2018-02-05T01:27:45.957Z,56.9
2018-02-05T01:28:46.731Z,56.3
2018-02-05T01:29:47.756Z,58.7
2018-02-05T01:30:48.476Z,56.8
2018-02-05T01:31:49.248Z,54.9
2018-02-05T01:32:49.955Z,57.3
2018-02-05T01:33:50.679Z,55.2
2018-02-05T01:34:51.444Z,57.9
2018-02-05T01:35:52.167Z,61.5
2018-02-05T01:36:52.881Z,58.2
2018-02-05T01:37:53.610Z,57.0
2018-02-05T01:38:54.325Z,56.8
2018-02-05T01:39:55.361Z,59.3
2018-02-05T01:40:56.152Z,54.5
2018-02-05T01:41:56.938Z,56.9
2018-02-05T01:42:57.659Z,54.5
2018-02-05T01:43:58.381Z,63.3
2018-02-05T01:44:59.125Z,60.2
2018-02-05T01:45:59.932Z,53.6
2018-02-05T01:47:00.651Z,58.8
2018-02-05T01:48:01.370Z,61.7
2018-02-05T01:49:02.087Z,60.6
2018-02-05T01:50:02.818Z,60.1
2018-02-05T01:51:03.638Z,59.3
2018-02-05T01:52:04.739Z,59.6
2018-02-05T01:53:05.538Z,59.4
2018-02-05T01:54:06.257Z,60.0
2018-02-05T01:55:06.984Z,54.8
2018-02-05T01:56:07.699Z,59.5
2018-02-05T01:57:08.767Z,53.3
2018-02-05T01:58:09.498Z,59.0
2018-02-05T01:59:10.229Z,59.1
2018-02-05T02:00:11.016Z,56.4
2018-02-05T02:01:11.750Z,57.6
2018-02-05T02:02:12.492Z,58.3
2018-02-05T02:03:13.287Z,56.1
2018-02-05T02:04:14.021Z,56.8
2018-02-05T02:05:14.790Z,58.0
2018-02-05T02:06:15.498Z,62.4
2018-02-05T02:07:16.226Z,56.8
2018-02-05T02:08:16.956Z,59.1
2018-02-05T02:09:17.679Z,57.1
2018-02-05T02:10:18.452Z,56.5
2018-02-05T02:11:19.167Z,59.8
2018-02-05T02:12:19.887Z,62.6
2018-02-05T02:13:20.667Z,55.7
2018-02-05T02:14:21.384Z,60.7
2018-02-05T02:15:22.113Z,59.5
2018-02-05T02:16:22.908Z,57.1
2018-02-05T02:17:23.625Z,59.4
2018-02-05T02:18:24.348Z,61.5
2018-02-05T02:19:25.133Z,61.8
2018-02-05T02:20:25.904Z,63.4
2018-02-05T02:21:26.630Z,60.8
2018-02-05T02:22:27.359Z,68.3
2018-02-05T02:23:28.127Z,76.0
2018-02-05T02:24:28.941Z,68.5
2018-02-05T02:25:29.699Z,67.6
2018-02-05T02:26:30.484Z,68.0
2018-02-05T02:27:31.208Z,74.5
2018-02-05T02:28:31.983Z,76.8
2018-02-05T02:29:32.707Z,71.4
2018-02-05T02:30:33.430Z,69.4
2018-02-05T02:31:34.194Z,69.7
2018-02-05T02:32:34.924Z,84.7
2018-02-05T02:33:35.751Z,78.1
2018-02-05T02:34:36.554Z,74.6
2018-02-05T02:35:37.277Z,82.0
2018-02-05T02:36:38.008Z,86.2
2018-02-05T02:37:38.744Z,81.6
2018-02-05T02:38:39.456Z,82.6
2018-02-05T02:39:40.523Z,80.3
2018-02-05T02:40:41.235Z,79.4
2018-02-05T02:41:42.017Z,81.7
2018-02-05T02:42:42.746Z,87.7
2018-02-05T02:43:43.498Z,90.3
2018-02-05T02:44:44.585Z,86.0
2018-02-05T02:45:45.316Z,89.9
2018-02-05T02:46:46.034Z,93.4
2018-02-05T02:47:46.765Z,87.5
2018-02-05T02:48:47.489Z,90.4
2018-02-05T02:49:48.515Z,87.3
2018-02-05T02:50:49.237Z,94.8
2018-02-05T02:51:49.995Z,86.7
2018-02-05T02:52:50.775Z,95.2
2018-02-05T02:53:51.508Z,87.3
2018-02-05T02:54:52.293Z,90.8
2018-02-05T02:55:53.015Z,95.6
2018-02-05T02:56:53.758Z,109.1
2018-02-05T02:57:54.558Z,102.2
2018-02-05T02:58:55.263Z,97.5
2018-02-05T02:59:56.006Z,98.1
2018-02-05T03:00:56.746Z,90.1
2018-02-05T03:01:57.470Z,93.3
2018-02-05T03:02:58.186Z,98.8
2018-02-05T03:03:58.906Z,102.8
2018-02-05T03:04:59.679Z,107.3
2018-02-05T03:06:00.468Z,96.3
2018-02-05T03:07:01.177Z,95.4
2018-02-05T03:08:01.966Z,108.9
2018-02-05T03:09:02.694Z,98.1
2018-02-05T03:10:03.475Z,105.4
2018-02-05T03:11:04.207Z,101.7
2018-02-05T03:12:04.936Z,97.8
2018-02-05T03:13:05.653Z,96.3
2018-02-05T03:14:06.376Z,123.8
2018-02-05T03:15:07.405Z,87.7
2018-02-05T03:16:08.206Z,94.0
2018-02-05T03:17:08.877Z,95.2
2018-02-05T03:18:09.594Z,92.2
2018-02-05T03:19:10.316Z,86.8
2018-02-05T03:20:11.110Z,94.8
2018-02-05T03:21:11.891Z,91.1
2018-02-05T03:22:12.606Z,88.0
2018-02-05T03:23:13.316Z,102.3
2018-02-05T03:24:14.105Z,94.5
2018-02-05T03:25:14.843Z,90.4
2018-02-05T03:26:15.556Z,83.6
2018-02-05T03:27:16.381Z,84.4
2018-02-05T03:28:17.197Z,90.1
2018-02-05T03:29:17.934Z,90.4
2018-02-05T03:30:18.975Z,86.5
2018-02-05T03:31:19.696Z,85.3
2018-02-05T03:32:20.437Z,85.3
2018-02-05T03:33:21.214Z,84.4
2018-02-05T03:34:21.936Z,83.0
2018-02-05T03:35:22.675Z,85.2
2018-02-05T03:36:23.708Z,95.8
2018-02-05T03:37:24.424Z,85.6
2018-02-05T03:38:25.154Z,96.5
2018-02-05T03:39:25.905Z,81.8
2018-02-05T03:40:26.679Z,83.4
2018-02-05T03:41:27.396Z,78.8
2018-02-05T03:42:28.175Z,84.1
2018-02-05T03:43:28.908Z,82.7
2018-02-05T03:44:29.631Z,85.6
2018-02-05T03:45:30.355Z,79.0
2018-02-05T03:46:31.073Z,84.8
2018-02-05T03:47:32.157Z,85.4
2018-02-05T03:48:32.936Z,94.0
2018-02-05T03:49:33.656Z,76.7
2018-02-05T03:50:34.387Z,76.8
2018-02-05T03:51:35.166Z,80.8
2018-02-05T03:52:36.004Z,77.2
2018-02-05T03:53:36.725Z,80.9
2018-02-05T03:54:37.446Z,85.6
2018-02-05T03:55:38.164Z,80.9
2018-02-05T03:56:38.889Z,83.2
2018-02-05T03:57:39.917Z,73.3
2018-02-05T03:58:40.637Z,77.9
2018-02-05T03:59:41.356Z,73.2
2018-02-05T04:00:42.087Z,72.0
2018-02-05T04:01:42.811Z,74.3
2018-02-05T04:02:43.845Z,78.8
2018-02-05T04:03:44.578Z,81.6
2018-02-05T04:04:45.276Z,73.2
2018-02-05T04:05:45.996Z,72.1
2018-02-05T04:06:46.708Z,76.5
2018-02-05T04:07:47.496Z,78.0
2018-02-05T04:08:48.282Z,84.1
2018-02-05T04:09:49.074Z,78.0
2018-02-05T04:10:49.802Z,68.2
2018-02-05T04:11:50.532Z,69.8
2018-02-05T04:12:51.254Z,86.4
2018-02-05T04:13:51.976Z,81.4
2018-02-05T04:14:52.694Z,77.4
2018-02-05T04:15:53.417Z,88.3
2018-02-05T04:16:54.434Z,83.0
2018-02-05T04:17:55.152Z,80.5
2018-02-05T04:18:55.863Z,79.7
2018-02-05T04:19:56.574Z,77.0
2018-02-05T04:20:57.299Z,79.3
2018-02-05T04:21:58.013Z,77.1
2018-02-05T04:22:58.811Z,77.1
2018-02-05T04:23:59.524Z,76.5
2018-02-05T04:25:00.256Z,72.1
2018-02-05T04:26:01.323Z,69.5
2018-02-05T04:27:02.062Z,74.9
2018-02-05T04:28:02.762Z,75.7
2018-02-05T04:29:03.489Z,58.9
2018-02-05T04:30:04.205Z,61.1
2018-02-05T04:31:04.916Z,70.0
2018-02-05T04:32:05.649Z,67.2
2018-02-05T04:33:06.463Z,70.0
2018-02-05T04:34:07.206Z,65.3
2018-02-05T04:35:08.003Z,68.7
2018-02-05T04:36:08.728Z,65.8
2018-02-05T04:37:09.553Z,69.1
2018-02-05T04:38:10.285Z,72.3
2018-02-05T04:39:11.064Z,72.2
2018-02-05T04:40:11.816Z,64.9
2018-02-05T04:41:12.546Z,70.5
2018-02-05T04:42:13.325Z,67.2
2018-02-05T04:43:14.047Z,73.7
2018-02-05T04:44:14.777Z,66.8
2018-02-05T04:45:15.505Z,61.5
2018-02-05T04:46:16.228Z,69.0
2018-02-05T04:47:16.980Z,66.4
2018-02-05T04:48:18.003Z,64.3
2018-02-05T04:49:18.725Z,71.2
2018-02-05T04:50:19.445Z,61.5
2018-02-05T04:51:20.161Z,67.1
2018-02-05T04:52:20.895Z,71.6
2018-02-05T04:53:21.657Z,72.8
2018-02-05T04:54:22.368Z,79.8
2018-02-05T04:55:23.155Z,81.9
2018-02-05T04:56:23.885Z,68.2
2018-02-05T04:57:24.611Z,81.5
2018-02-05T04:58:25.667Z,76.9
2018-02-05T04:59:26.382Z,77.9
2018-02-05T05:00:27.103Z,80.3
2018-02-05T05:01:27.838Z,75.6
2018-02-05T05:02:28.624Z,80.0
2018-02-05T05:03:29.656Z,80.9
2018-02-05T05:04:30.377Z,83.8
2018-02-05T05:05:31.183Z,87.6
2018-02-05T05:06:31.929Z,81.8
2018-02-05T05:07:32.647Z,89.6
2018-02-05T05:08:33.495Z,88.4
2018-02-05T05:09:34.221Z,85.4
2018-02-05T05:10:34.996Z,89.3
2018-02-05T05:11:35.721Z,82.3
2018-02-05T05:12:36.448Z,80.1
2018-02-05T05:13:37.169Z,85.6
2018-02-05T05:14:37.899Z,80.0
2018-02-05T05:15:38.668Z,84.9
2018-02-05T05:16:39.455Z,100.6
2018-02-05T05:17:40.243Z,97.7
2018-02-05T05:18:40.975Z,100.5
2018-02-05T05:19:41.696Z,86.7
2018-02-05T05:20:42.716Z,88.0
2018-02-05T05:21:43.496Z,96.2
2018-02-05T05:22:44.226Z,94.6
2018-02-05T05:23:44.955Z,88.7
2018-02-05T05:24:45.734Z,106.2
2018-02-05T05:25:46.469Z,100.5
2018-02-05T05:26:47.263Z,94.6
2018-02-05T05:27:48.343Z,97.1
2018-02-05T05:28:49.085Z,111.6
2018-02-05T05:29:49.796Z,92.9
2018-02-05T05:30:50.545Z,91.6
2018-02-05T05:31:51.341Z,94.8
2018-02-05T05:32:52.435Z,93.9
2018-02-05T05:33:53.188Z,101.1
2018-02-05T05:34:53.986Z,98.6
2018-02-05T05:35:54.699Z,88.6
2018-02-05T05:36:55.475Z,93.9
2018-02-05T05:37:56.245Z,99.9
2018-02-05T05:38:57.036Z,102.8
2018-02-05T05:39:57.772Z,100.4
2018-02-05T05:40:58.533Z,100.8
2018-02-05T05:41:59.253Z,96.8
2018-02-05T05:43:00.028Z,86.4
2018-02-05T05:44:00.746Z,107.8
2018-02-05T05:45:01.467Z,100.5
2018-02-05T05:46:02.164Z,99.2
2018-02-05T05:47:02.884Z,112.3
2018-02-05T05:48:03.625Z,106.7
2018-02-05T05:49:04.358Z,102.5
2018-02-05T05:50:05.100Z,109.9
2018-02-05T05:51:05.814Z,111.2
2018-02-05T05:52:06.526Z,105.3
2018-02-05T05:53:07.255Z,104.7
2018-02-05T05:54:07.964Z,112.8
2018-02-05T05:55:08.922Z,121.7
2018-02-05T05:56:09.596Z,108.7
2018-02-05T05:57:10.330Z,115.2
2018-02-05T05:58:11.055Z,120.7
2018-02-05T05:59:11.799Z,117.8
2018-02-05T06:00:12.585Z,110.0
2018-02-05T06:01:13.302Z,119.7
2018-02-05T06:02:14.028Z,112.8
2018-02-05T06:03:14.737Z,121.7
2018-02-05T06:04:15.466Z,129.7
2018-02-05T06:05:16.197Z,124.3
2018-02-05T06:06:16.995Z,123.7
2018-02-05T06:07:18.004Z,118.4
2018-02-05T06:08:18.730Z,116.1
2018-02-05T06:09:19.522Z,106.2
2018-02-05T06:10:20.256Z,120.1
2018-02-05T06:11:20.982Z,115.4
2018-02-05T06:12:21.745Z,113.4
2018-02-05T06:13:22.475Z,109.2
2018-02-05T06:14:23.202Z,121.6
2018-02-05T06:15:23.920Z,109.4
2018-02-05T06:16:24.637Z,111.5
2018-02-05T06:17:25.345Z,115.7
2018-02-05T06:18:26.083Z,113.1
2018-02-05T06:19:26.824Z,133.3
2018-02-05T06:20:27.575Z,125.2
2018-02-05T06:21:28.291Z,110.6
2018-02-05T06:22:29.013Z,117.8
2018-02-05T06:23:30.034Z,111.7
2018-02-05T06:24:30.757Z,116.7
2018-02-05T06:25:31.540Z,117.0
2018-02-05T06:26:32.221Z,107.3
2018-02-05T06:27:33.038Z,113.7
2018-02-05T06:28:33.737Z,113.9
2018-02-05T06:29:34.821Z,116.8
2018-02-05T06:30:35.521Z,119.2
2018-02-05T06:31:36.244Z,121.1
2018-02-05T06:32:36.964Z,111.3
2018-02-05T06:33:37.689Z,108.7
2018-02-05T06:34:38.416Z,105.3
2018-02-05T06:35:39.136Z,110.3
2018-02-05T06:36:39.863Z,110.9
2018-02-05T06:37:40.578Z,101.8
2018-02-05T06:38:41.294Z,111.3
2018-02-05T06:39:42.014Z,109.4
2018-02-05T06:40:42.777Z,106.6
2018-02-05T06:41:43.520Z,106.4
2018-02-05T06:42:44.298Z,102.1
2018-02-05T06:43:45.035Z,97.4
2018-02-05T06:44:45.817Z,95.4
2018-02-05T06:45:46.531Z,97.1
2018-02-05T06:46:47.253Z,92.5
2018-02-05T06:47:47.973Z,89.5
2018-02-05T06:48:48.706Z,86.7
2018-02-05T06:49:49.783Z,90.6
2018-02-05T06:50:50.523Z,93.8
2018-02-05T06:51:51.248Z,82.9
2018-02-05T06:52:51.963Z,77.9
2018-02-05T06:53:52.738Z,75.2
2018-02-05T06:54:53.461Z,80.7
2018-02-05T06:55:54.233Z,88.8
2018-02-05T06:56:55.244Z,73.9
2018-02-05T06:57:55.967Z,86.5
2018-02-05T06:58:56.731Z,79.2
2018-02-05T06:59:57.450Z,73.5
2018-02-05T07:00:58.173Z,70.1
2018-02-05T07:01:58.898Z,67.5
2018-02-05T07:02:59.671Z,62.3
2018-02-05T07:04:00.388Z,63.9
2018-02-05T07:05:01.178Z,62.0
2018-02-05T07:06:01.946Z,57.9
2018-02-05T07:07:02.645Z,61.7
2018-02-05T07:08:03.367Z,56.4
2018-02-05T07:09:04.090Z,60.9
2018-02-05T07:10:04.854Z,61.3
2018-02-05T07:11:05.567Z,61.3
2018-02-05T07:12:06.301Z,59.4
2018-02-05T07:13:07.036Z,55.2
2018-02-05T07:14:07.803Z,51.4
2018-02-05T07:15:08.554Z,50.4
2018-02-05T07:16:09.269Z,55.4
2018-02-05T07:17:09.996Z,55.4
2018-02-05T07:18:10.722Z,56.2
2018-02-05T07:19:11.513Z,49.4
2018-02-05T07:20:12.236Z,50.5
2018-02-05T07:21:13.031Z,52.9
2018-02-05T07:22:13.860Z,47.8
2018-02-05T07:23:14.709Z,51.7
2018-02-05T07:24:15.430Z,50.6
2018-02-05T07:25:16.170Z,52.9
2018-02-05T07:26:16.890Z,50.5
2018-02-05T07:27:17.677Z,48.3
2018-02-05T07:28:18.394Z,51.2
2018-02-05T07:29:19.428Z,52.2
2018-02-05T07:30:20.230Z,52.9
2018-02-05T07:31:20.963Z,51.5
2018-02-05T07:32:21.685Z,45.7
2018-02-05T07:33:22.408Z,50.1
2018-02-05T07:34:23.184Z,49.1
2018-02-05T07:35:23.906Z,44.3
2018-02-05T07:36:24.638Z,44.8
2018-02-05T07:37:25.380Z,42.0
2018-02-05T07:38:26.176Z,48.4
2018-02-05T07:39:27.244Z,49.9
2018-02-05T07:40:27.978Z,47.5
2018-02-05T07:41:28.704Z,47.2
2018-02-05T07:42:29.446Z,46.4
2018-02-05T07:43:30.165Z,44.6
2018-02-05T07:44:31.008Z,49.8
2018-02-05T07:45:32.586Z,48.9
2018-02-05T07:46:33.678Z,46.0
2018-02-05T07:47:34.397Z,46.7
2018-02-05T07:48:35.131Z,46.1
2018-02-05T07:49:36.217Z,45.3
2018-02-05T07:50:36.952Z,45.8
2018-02-05T07:51:37.706Z,51.4
2018-02-05T07:52:38.435Z,46.4
2018-02-05T07:53:39.166Z,43.4
2018-02-05T07:54:39.884Z,46.7
2018-02-05T07:55:40.627Z,41.6
2018-02-05T07:56:41.413Z,42.7
2018-02-05T07:57:42.163Z,43.7
2018-02-05T07:58:42.928Z,46.5
2018-02-05T07:59:43.648Z,43.5
2018-02-05T08:00:44.366Z,44.8
2018-02-05T08:01:45.445Z,41.8
2018-02-05T08:02:46.232Z,44.1
2018-02-05T08:03:47.015Z,48.3
2018-02-05T08:04:47.745Z,44.6
2018-02-05T08:05:48.474Z,39.3
2018-02-05T08:06:49.207Z,43.0
2018-02-05T08:07:49.933Z,37.9
2018-02-05T08:08:50.665Z,43.7
2018-02-05T08:09:51.462Z,39.0
2018-02-05T08:10:52.187Z,45.7
2018-02-05T08:11:52.914Z,39.1
2018-02-05T08:12:53.650Z,42.1
2018-02-05T08:13:54.435Z,40.4
2018-02-05T08:14:55.167Z,40.3
2018-02-05T08:15:55.955Z,42.5
2018-02-05T08:16:56.679Z,41.6
2018-02-05T08:17:57.424Z,43.0
2018-02-05T08:18:58.136Z,41.1
2018-02-05T08:19:58.995Z,36.6
2018-02-05T08:20:59.776Z,41.2
2018-02-05T08:22:00.507Z,39.9
2018-02-05T08:23:01.292Z,39.6
2018-02-05T08:24:02.105Z,39.7
2018-02-05T08:25:03.197Z,36.7
2018-02-05T08:26:03.936Z,39.1
2018-02-05T08:27:04.666Z,39.3
2018-02-05T08:28:05.384Z,39.8
2018-02-05T08:29:06.103Z,35.1
2018-02-05T08:30:07.122Z,37.8
2018-02-05T08:31:07.854Z,38.8
2018-02-05T08:32:08.565Z,37.1
2018-02-05T08:33:09.285Z,43.2
2018-02-05T08:34:10.023Z,37.9
2018-02-05T08:35:10.804Z,34.7
2018-02-05T08:36:11.537Z,32.1
2018-02-05T08:37:12.350Z,37.2
2018-02-05T08:38:13.124Z,33.7
2018-02-05T08:39:13.844Z,35.1
2018-02-05T08:40:14.627Z,35.6
2018-02-05T08:41:15.345Z,31.9
2018-02-05T08:42:16.073Z,37.3
2018-02-05T08:43:16.845Z,34.7
2018-02-05T08:44:17.643Z,34.8
2018-02-05T08:45:18.443Z,32.8
2018-02-05T08:46:19.173Z,35.5
2018-02-05T08:47:19.906Z,36.2
2018-02-05T08:48:20.633Z,34.2
2018-02-05T08:49:21.388Z,32.1
2018-02-05T08:50:22.085Z,35.2
2018-02-05T08:51:22.885Z,36.7
2018-02-05T08:52:23.619Z,37.3
2018-02-05T08:53:25.218Z,35.4
2018-02-05T08:54:26.961Z,37.7
2018-02-05T08:55:27.983Z,34.4
2018-02-05T08:56:28.695Z,38.3
2018-02-05T08:57:30.954Z,39.1
2018-02-05T08:58:32.052Z,35.7
2018-02-05T08:59:33.770Z,39.1
2018-02-05T09:00:34.706Z,34.4
2018-02-05T09:01:35.831Z,35.6
2018-02-05T09:02:36.818Z,36.0
2018-02-05T09:03:38.635Z,37.4
2018-02-05T09:04:39.682Z,43.9
2018-02-05T09:05:40.403Z,35.5
2018-02-05T09:06:41.128Z,36.0
2018-02-05T09:07:41.844Z,40.3
2018-02-05T09:08:42.572Z,32.2
2018-02-05T09:09:43.691Z,35.9
2018-02-05T09:10:44.487Z,34.8
2018-02-05T09:11:45.282Z,35.7
2018-02-05T09:12:46.018Z,35.4
2018-02-05T09:13:46.754Z,37.1
2018-02-05T09:14:47.526Z,37.4
2018-02-05T09:15:48.250Z,36.5
2018-02-05T09:16:48.982Z,31.0
2018-02-05T09:17:49.696Z,36.0
2018-02-05T09:18:50.422Z,33.2
2018-02-05T09:19:51.234Z,35.0
2018-02-05T09:20:51.964Z,34.7
2018-02-05T09:21:52.689Z,34.6
2018-02-05T09:22:53.427Z,32.0
2018-02-05T09:23:54.163Z,31.7
2018-02-05T09:24:55.244Z,35.1
2018-02-05T09:25:55.976Z,31.1
2018-02-05T09:26:56.683Z,34.5
2018-02-05T09:27:57.411Z,33.8
2018-02-05T09:28:58.205Z,37.9
2018-02-05T09:29:58.929Z,32.3
2018-02-05T09:30:59.718Z,37.6
2018-02-05T09:32:00.407Z,35.4
2018-02-05T09:33:01.206Z,37.9
2018-02-05T09:34:01.924Z,34.6
2018-02-05T09:35:02.649Z,35.3
2018-02-05T09:36:03.433Z,27.7
2018-02-05T09:37:04.453Z,29.3
2018-02-05T09:38:05.183Z,28.7
2018-02-05T09:39:05.916Z,31.5
2018-02-05T09:40:06.700Z,31.8
2018-02-05T09:41:07.429Z,30.3
2018-02-05T09:42:08.167Z,33.5
2018-02-05T09:43:08.966Z,32.0
2018-02-05T09:44:09.684Z,29.0
2018-02-05T09:45:10.416Z,30.0
2018-02-05T09:46:11.438Z,30.2
2018-02-05T09:47:12.155Z,31.6
2018-02-05T09:48:12.884Z,32.3
2018-02-05T09:49:13.604Z,33.0
2018-02-05T09:50:14.332Z,27.7
2018-02-05T09:51:15.743Z,29.7
2018-02-05T09:52:16.474Z,32.1
2018-02-05T09:53:17.205Z,33.0
2018-02-05T09:54:17.991Z,30.1
2018-02-05T09:55:18.721Z,30.5
2018-02-05T09:56:19.437Z,29.8
2018-02-05T09:57:20.171Z,32.4
2018-02-05T09:58:20.946Z,31.8
2018-02-05T09:59:21.678Z,28.5
2018-02-05T10:00:22.498Z,33.2
2018-02-05T10:02:37.555Z,31.9
2018-02-05T10:03:38.288Z,34.0
2018-02-05T10:04:38.952Z,32.8
2018-02-05T10:05:39.686Z,33.1
2018-02-05T10:06:40.411Z,33.9
2018-02-05T10:07:41.152Z,28.9
2018-02-05T10:08:41.924Z,33.4
2018-02-05T10:09:42.653Z,28.8
2018-02-05T10:10:43.377Z,28.5
2018-02-05T10:11:44.108Z,27.7
2018-02-05T10:12:44.824Z,29.2
2018-02-05T10:13:45.614Z,31.7
2018-02-05T10:14:46.348Z,27.1
2018-02-05T10:15:47.173Z,23.5
2018-02-05T10:16:47.907Z,31.3
2018-02-05T10:17:48.637Z,26.2
2018-02-05T10:18:49.666Z,27.9
2018-02-05T10:19:50.444Z,26.2
2018-02-05T10:20:51.177Z,26.4
2018-02-05T10:21:51.906Z,26.9
2018-02-05T10:22:52.663Z,30.7
2018-02-05T10:23:53.764Z,25.8
2018-02-05T10:24:54.483Z,25.9
2018-02-05T10:25:55.199Z,29.9
2018-02-05T10:26:56.028Z,26.8
2018-02-05T10:27:56.763Z,24.6
2018-02-05T10:28:57.840Z,27.9
2018-02-05T10:29:58.568Z,22.4
2018-02-05T10:30:59.362Z,25.2
2018-02-05T10:32:00.121Z,25.6
2018-02-05T10:33:00.826Z,23.7
2018-02-05T10:34:01.855Z,25.3
2018-02-05T10:35:02.666Z,29.7
2018-02-05T10:36:03.446Z,26.4
2018-02-05T10:37:04.175Z,28.2
2018-02-05T10:38:04.976Z,23.1
2018-02-05T10:39:05.755Z,23.8
2018-02-05T10:40:06.486Z,25.7
2018-02-05T10:41:07.216Z,26.8
2018-02-05T10:42:07.938Z,23.7
2018-02-05T10:43:08.672Z,24.1
2018-02-05T10:44:09.453Z,26.4
2018-02-05T10:45:10.230Z,26.8
2018-02-05T10:46:10.956Z,25.0
2018-02-05T10:47:11.673Z,24.4
2018-02-05T10:48:12.397Z,23.3
2018-02-05T10:49:13.126Z,22.9
2018-02-05T10:50:13.859Z,26.6
2018-02-05T10:51:14.593Z,27.8
2018-02-05T10:52:15.349Z,25.6
2018-02-05T10:53:16.069Z,28.6
2018-02-05T10:54:16.807Z,26.9
2018-02-05T10:55:17.837Z,26.3
2018-02-05T10:56:18.573Z,25.8
2018-02-05T10:57:19.308Z,23.2
2018-02-05T10:58:20.045Z,26.6
2018-02-05T10:59:20.836Z,24.4
2018-02-05T11:00:21.856Z,24.1
2018-02-05T11:01:22.582Z,25.0
2018-02-05T11:02:23.373Z,24.2
2018-02-05T11:03:24.106Z,23.9
2018-02-05T11:04:24.837Z,26.1
2018-02-05T11:05:25.638Z,22.5
2018-02-05T11:06:26.456Z,24.9
2018-02-05T11:07:27.237Z,25.7
2018-02-05T11:08:27.966Z,24.6
2018-02-05T11:09:28.694Z,24.7
2018-02-05T11:10:29.419Z,24.5
2018-02-05T11:11:30.204Z,24.3
2018-02-05T11:12:30.990Z,24.1
2018-02-05T11:13:31.725Z,24.7
2018-02-05T11:14:32.488Z,26.9
2018-02-05T11:15:33.186Z,27.3
2018-02-05T11:16:33.916Z,27.0
2018-02-05T11:17:34.934Z,26.5
2018-02-05T11:18:35.659Z,28.8
2018-02-05T11:19:36.434Z,25.8
2018-02-05T11:20:37.158Z,26.6
2018-02-05T11:21:37.892Z,25.2
2018-02-05T11:22:38.662Z,25.1
2018-02-05T11:23:39.406Z,24.8
2018-02-05T11:24:40.189Z,25.4
2018-02-05T11:25:41.213Z,24.1
2018-02-05T11:26:41.946Z,26.5
2018-02-05T11:27:42.665Z,24.6
2018-02-05T11:28:43.474Z,26.2
2018-02-05T11:29:44.276Z,22.7
2018-02-05T11:30:45.064Z,27.3
2018-02-05T11:31:45.838Z,24.5
2018-02-05T11:32:46.626Z,27.7
2018-02-05T11:33:47.358Z,26.8
2018-02-05T11:34:48.167Z,28.2
2018-02-05T11:35:48.935Z,24.8
2018-02-05T11:36:49.716Z,27.8
2018-02-05T11:37:50.450Z,25.2
2018-02-05T11:38:51.178Z,26.1
2018-02-05T11:39:52.278Z,25.5
2018-02-05T11:40:53.070Z,24.7
2018-02-05T11:41:53.843Z,24.5
2018-02-05T11:42:54.578Z,24.1
2018-02-05T11:43:55.335Z,24.5
2018-02-05T11:44:56.073Z,23.5
2018-02-05T11:45:56.812Z,23.0
2018-02-05T11:46:57.627Z,22.5
2018-02-05T11:47:58.346Z,24.8
2018-02-05T11:48:59.070Z,21.1
2018-02-05T11:49:59.869Z,22.5
2018-02-05T11:51:00.632Z,24.8
2018-02-05T11:52:01.417Z,22.0
2018-02-05T11:53:02.175Z,20.8
2018-02-05T11:54:02.948Z,19.8
2018-02-05T11:55:03.727Z,23.7
2018-02-05T11:56:04.475Z,23.6
2018-02-05T11:57:05.185Z,22.4
2018-02-05T11:58:05.977Z,24.3
2018-02-05T11:59:06.700Z,20.0
2018-02-05T12:00:07.442Z,20.2
2018-02-05T12:01:08.211Z,20.8
2018-02-05T12:02:08.929Z,21.0
2018-02-05T12:03:09.651Z,22.7
2018-02-05T12:04:12.837Z,18.1
2018-02-05T12:05:13.753Z,22.6
2018-02-05T12:06:14.484Z,23.5
2018-02-05T12:07:15.237Z,22.9
2018-02-05T12:08:16.315Z,22.6
2018-02-05T12:09:17.106Z,21.7
2018-02-05T12:10:17.887Z,22.5
2018-02-05T12:11:18.576Z,23.2
2018-02-05T12:12:19.414Z,23.4
2018-02-05T12:13:20.209Z,21.1
2018-02-05T12:14:20.938Z,23.1
2018-02-05T12:15:21.666Z,23.0
2018-02-05T12:16:22.656Z,18.2
2018-02-05T12:17:23.333Z,22.9
2018-02-05T12:18:25.131Z,22.3
2018-02-05T12:19:26.927Z,22.7
2018-02-05T12:20:28.751Z,21.8
2018-02-05T12:21:29.764Z,24.2
2018-02-05T12:22:30.576Z,25.7
2018-02-05T12:23:31.442Z,21.3
2018-02-05T12:24:32.233Z,24.4
2018-02-05T12:25:32.961Z,24.6
2018-02-05T12:26:33.765Z,23.6
2018-02-05T12:27:34.557Z,26.0
2018-02-05T12:28:35.613Z,23.6
2018-02-05T12:29:36.349Z,25.7
2018-02-05T12:30:37.145Z,24.6
2018-02-05T12:31:37.927Z,28.0
2018-02-05T12:32:38.646Z,22.8
2018-02-05T12:33:39.445Z,25.6
2018-02-05T12:34:40.475Z,23.5
2018-02-05T12:35:41.205Z,21.8
2018-02-05T12:36:41.956Z,23.2
2018-02-05T12:37:42.680Z,23.2
2018-02-05T12:38:43.418Z,25.3
2018-02-05T12:39:44.235Z,22.4
2018-02-05T12:40:44.976Z,24.9
2018-02-05T12:41:45.711Z,26.0
2018-02-05T12:42:46.484Z,22.3
2018-02-05T12:43:47.217Z,22.7
2018-02-05T12:44:47.942Z,24.2
2018-02-05T12:45:48.667Z,24.6
2018-02-05T12:46:49.800Z,19.7
2018-02-05T12:47:50.460Z,25.2
2018-02-05T12:48:51.264Z,23.6
2018-02-05T12:49:52.047Z,21.4
2018-02-05T12:50:52.897Z,24.6
2018-02-05T12:51:53.686Z,25.7
2018-02-05T12:52:54.479Z,23.1
2018-02-05T12:53:55.205Z,23.7
2018-02-05T12:54:55.987Z,24.7
2018-02-05T12:55:57.101Z,23.6
2018-02-05T12:56:57.897Z,23.8
2018-02-05T12:57:58.627Z,21.7
2018-02-05T12:58:59.357Z,23.5
2018-02-05T13:00:00.097Z,19.5
2018-02-05T13:01:01.387Z,24.4
2018-02-05T13:02:02.055Z,19.7
2018-02-05T13:03:03.965Z,19.6
2018-02-05T13:04:04.911Z,21.7
2018-02-05T13:05:06.205Z,20.0
2018-02-05T13:06:07.295Z,19.5
2018-02-05T13:07:08.113Z,20.0
2018-02-05T13:08:09.575Z,23.5
2018-02-05T13:09:10.247Z,20.4
2018-02-05T13:10:10.990Z,21.9
2018-02-05T13:11:11.786Z,19.7
2018-02-05T13:12:12.542Z,20.0
2018-02-05T13:13:13.311Z,21.7
2018-02-05T13:14:14.398Z,19.5
2018-02-05T13:15:15.083Z,20.9
2018-02-05T13:16:15.880Z,24.7
2018-02-05T13:17:16.829Z,22.3
2018-02-05T13:18:17.505Z,23.8
2018-02-05T13:19:18.298Z,20.6
2018-02-05T13:20:19.102Z,25.4
2018-02-05T13:21:19.811Z,22.0
2018-02-05T13:22:20.595Z,22.1
2018-02-05T13:23:21.382Z,18.4
2018-02-05T13:24:22.196Z,22.3
2018-02-05T13:25:23.908Z,24.5
2018-02-05T13:26:24.943Z,19.5
2018-02-05T13:27:25.653Z,22.4